createdAt,value
2019-06-01T00:00:49.627Z,11.20
2019-06-01T00:03:18.524Z,11.20
2019-06-01T00:05:48.460Z,11.10
2019-06-01T00:08:17.615Z,11.10
2019-06-01T00:10:47.705Z,11.10
2019-06-01T00:13:16.802Z,11.20
2019-06-01T00:15:46.113Z,11.20
2019-06-01T00:18:14.994Z,11.10
2019-06-01T00:20:44.293Z,11.00
2019-06-01T00:23:13.242Z,11.00
2019-06-01T00:25:42.603Z,11.00
2019-06-01T00:28:11.627Z,11.00
2019-06-01T00:30:41.600Z,11.00
2019-06-01T00:33:10.570Z,11.00
2019-06-01T00:35:39.439Z,11.00
2019-06-01T00:38:08.342Z,10.90
2019-06-01T00:40:37.613Z,10.90
2019-06-01T00:43:06.535Z,10.80
2019-06-01T00:45:35.353Z,10.70
2019-06-01T00:48:04.207Z,10.60
2019-06-01T00:50:33.364Z,10.40
2019-06-01T00:53:02.213Z,10.30
2019-06-01T00:55:31.098Z,10.20
2019-06-01T00:58:00.027Z,10.20
2019-06-01T01:00:42.855Z,10.20
2019-06-01T01:02:59.537Z,10.10
2019-06-01T01:05:28.640Z,10.00
2019-06-01T01:07:57.487Z,10.00
2019-06-01T01:10:26.397Z,9.90
2019-06-01T01:13:12.834Z,9.90
2019-06-01T01:15:41.771Z,9.80
2019-06-01T01:18:12.382Z,9.80
2019-06-01T01:20:41.638Z,9.80
2019-06-01T01:23:20.871Z,9.90
2019-06-01T01:25:50.498Z,10.00
2019-06-01T01:28:19.534Z,10.00
2019-06-01T01:31:02.969Z,9.90
2019-06-01T01:33:18.977Z,9.90
2019-06-01T01:35:47.795Z,9.90
2019-06-01T01:38:16.665Z,9.80
2019-06-01T01:40:45.551Z,9.80
2019-06-01T01:43:25.798Z,9.70
2019-06-01T01:45:54.858Z,9.70
2019-06-01T01:48:23.732Z,9.70
2019-06-01T01:50:52.589Z,9.60
2019-06-01T01:53:21.551Z,9.60
2019-06-01T01:55:50.943Z,9.60
2019-06-01T01:58:19.941Z,9.60
2019-06-01T02:00:49.995Z,9.60
2019-06-01T02:06:06.668Z,9.50
2019-06-01T02:08:35.529Z,9.40
2019-06-01T02:11:04.409Z,9.30
2019-06-01T02:13:33.318Z,9.30
2019-06-01T02:16:02.654Z,9.10
2019-06-01T02:18:31.686Z,8.90
2019-06-01T02:21:00.578Z,8.80
2019-06-01T02:23:29.469Z,8.70
2019-06-01T02:25:58.898Z,8.60
2019-06-01T02:28:27.974Z,8.60
2019-06-01T02:30:57.915Z,8.50
2019-06-01T02:33:26.880Z,8.50
2019-06-01T02:35:56.302Z,8.60
2019-06-01T02:38:25.254Z,8.70
2019-06-01T02:40:54.839Z,8.80
2019-06-01T02:43:24.279Z,8.90
2019-06-01T02:45:53.148Z,8.90
2019-06-01T02:48:22.006Z,9.00
2019-06-01T02:50:50.921Z,9.00
2019-06-01T02:53:19.790Z,9.00
2019-06-01T02:55:48.628Z,9.00
2019-06-01T02:58:17.536Z,9.00
2019-06-01T03:00:49.371Z,9.10
2019-06-01T03:03:18.969Z,9.20
2019-06-01T03:05:48.772Z,9.20
2019-06-01T03:08:19.075Z,9.20
2019-06-01T03:10:49.845Z,9.20
2019-06-01T03:13:21.822Z,9.20
2019-06-01T03:15:53.672Z,9.20
2019-06-01T03:18:26.031Z,9.10
2019-06-01T03:20:57.148Z,9.10
2019-06-01T03:23:27.581Z,8.80
2019-06-01T03:25:56.965Z,8.70
2019-06-01T03:28:27.343Z,8.50
2019-06-01T03:30:56.224Z,8.40
2019-06-01T03:33:25.250Z,8.30
2019-06-01T03:35:54.066Z,8.30
2019-06-01T03:38:23.164Z,8.40
2019-06-01T03:40:52.308Z,8.50
2019-06-01T03:43:22.853Z,8.60
2019-06-01T03:45:51.744Z,8.70
2019-06-01T03:48:20.772Z,8.80
2019-06-01T03:50:49.643Z,8.80
2019-06-01T03:53:18.505Z,8.90
2019-06-01T03:55:47.375Z,8.90
2019-06-01T03:58:16.260Z,9.00
2019-06-01T04:00:45.198Z,9.00
2019-06-01T04:03:14.066Z,9.00
2019-06-01T04:05:42.925Z,9.00
2019-06-01T04:08:15.056Z,9.00
2019-06-01T04:10:43.919Z,9.00
2019-06-01T04:13:12.762Z,9.00
2019-06-01T04:15:41.670Z,9.00
2019-06-01T04:18:10.583Z,9.00
2019-06-01T04:23:27.278Z,9.00
2019-06-01T04:25:56.143Z,9.10
2019-06-01T04:28:25.144Z,9.10
2019-06-01T04:30:54.051Z,9.10
2019-06-01T04:33:22.934Z,9.20
2019-06-01T04:35:51.862Z,9.20
2019-06-01T04:38:20.778Z,9.30
2019-06-01T04:40:49.655Z,9.40
2019-06-01T04:43:18.563Z,9.50
2019-06-01T04:45:47.427Z,9.60
2019-06-01T04:48:16.316Z,9.60
2019-06-01T04:50:45.219Z,9.70
2019-06-01T04:53:15.103Z,9.70
2019-06-01T04:55:44.110Z,9.80
2019-06-01T04:58:13.156Z,9.80
2019-06-01T05:00:42.042Z,9.90
2019-06-01T05:03:12.006Z,9.90
2019-06-01T05:05:41.387Z,10.00
2019-06-01T05:08:12.603Z,10.10
2019-06-01T05:10:40.752Z,10.20
2019-06-01T05:13:09.697Z,10.20
2019-06-01T05:15:38.565Z,10.30
2019-06-01T05:18:07.972Z,10.30
2019-06-01T05:20:37.038Z,10.40
2019-06-01T05:23:06.844Z,10.60
2019-06-01T05:25:37.182Z,10.70
2019-06-01T05:28:07.080Z,10.80
2019-06-01T05:30:35.964Z,11.00
2019-06-01T05:33:18.519Z,11.20
2019-06-01T05:35:35.734Z,11.30
2019-06-01T05:38:04.615Z,11.60
2019-06-01T05:40:33.468Z,11.80
2019-06-01T05:43:02.420Z,12.00
2019-06-01T05:45:31.339Z,11.90
2019-06-01T05:48:00.215Z,11.70
2019-06-01T05:50:29.098Z,11.70
2019-06-01T05:52:57.966Z,11.70
2019-06-01T05:55:26.882Z,11.60
2019-06-01T05:57:55.797Z,11.60
2019-06-01T06:00:39.900Z,11.60
2019-06-01T06:03:08.809Z,11.60
2019-06-01T06:05:39.244Z,11.70
2019-06-01T06:08:08.114Z,11.70
2019-06-01T06:10:37.152Z,11.80
2019-06-01T06:13:06.093Z,11.90
2019-06-01T06:15:34.963Z,12.00
2019-06-01T06:18:03.936Z,12.10
2019-06-01T06:20:32.819Z,12.20
2019-06-01T06:23:01.700Z,12.20
2019-06-01T06:25:33.291Z,12.30
2019-06-01T06:28:01.993Z,12.40
2019-06-01T06:30:30.956Z,12.60
2019-06-01T06:32:59.869Z,12.60
2019-06-01T06:35:28.757Z,12.60
2019-06-01T06:37:57.639Z,12.70
2019-06-01T06:40:26.525Z,12.70
2019-06-01T06:42:55.390Z,12.80
2019-06-01T06:45:24.949Z,12.80
2019-06-01T06:47:54.089Z,12.80
2019-06-01T06:50:23.593Z,12.90
2019-06-01T06:52:52.630Z,12.90
2019-06-01T06:55:21.999Z,13.00
2019-06-01T06:57:51.025Z,13.10
2019-06-01T07:00:20.635Z,13.20
2019-06-01T07:02:51.122Z,13.10
2019-06-01T07:05:21.229Z,13.20
2019-06-01T07:07:51.850Z,13.20
2019-06-01T07:10:21.889Z,13.20
2019-06-01T07:12:50.991Z,13.30
2019-06-01T07:15:19.957Z,13.40
2019-06-01T07:17:48.844Z,13.50
2019-06-01T07:20:29.532Z,13.60
2019-06-01T07:22:58.537Z,13.70
2019-06-01T07:25:27.433Z,13.80
2019-06-01T07:27:56.540Z,13.80
2019-06-01T07:30:49.860Z,13.90
2019-06-01T07:33:04.887Z,13.90
2019-06-01T07:35:33.764Z,14.00
2019-06-01T07:38:03.635Z,14.10
2019-06-01T07:40:33.047Z,14.20
2019-06-01T07:43:02.060Z,14.30
2019-06-01T07:45:33.568Z,14.40
2019-06-01T07:48:01.723Z,14.50
2019-06-01T07:50:32.233Z,14.60
2019-06-01T07:53:01.142Z,14.70
2019-06-01T07:55:30.059Z,14.90
2019-06-01T07:57:58.946Z,15.10
2019-06-01T08:00:28.908Z,15.20
2019-06-01T08:02:57.907Z,15.40
2019-06-01T08:05:27.958Z,15.50
2019-06-01T08:07:57.002Z,15.60
2019-06-01T08:10:26.490Z,15.60
2019-06-01T08:12:56.473Z,15.50
2019-06-01T08:15:25.699Z,15.60
2019-06-01T08:17:54.936Z,15.80
2019-06-01T08:20:24.042Z,16.00
2019-06-01T08:22:53.143Z,16.00
2019-06-01T08:25:22.207Z,16.30
2019-06-01T08:27:51.110Z,16.90
2019-06-01T08:30:20.136Z,17.60
2019-06-01T08:32:49.064Z,17.70
2019-06-01T08:35:19.134Z,17.90
2019-06-01T08:37:48.062Z,18.40
2019-06-01T08:40:17.418Z,17.90
2019-06-01T08:42:46.368Z,17.40
2019-06-01T08:45:16.261Z,17.10
2019-06-01T08:47:45.249Z,16.80
2019-06-01T08:50:14.824Z,16.70
2019-06-01T08:52:43.870Z,16.70
2019-06-01T08:55:13.069Z,16.70
2019-06-01T08:57:42.015Z,16.80
2019-06-01T09:00:11.812Z,16.70
2019-06-01T09:02:53.022Z,16.80
2019-06-01T09:05:24.935Z,17.70
2019-06-01T09:07:52.553Z,18.60
2019-06-01T09:10:21.507Z,18.90
2019-06-01T09:12:52.982Z,18.60
2019-06-01T09:15:21.896Z,18.60
2019-06-01T09:17:50.858Z,18.70
2019-06-01T09:20:19.817Z,19.00
2019-06-01T09:22:48.711Z,19.00
2019-06-01T09:25:17.765Z,18.80
2019-06-01T09:27:46.755Z,18.60
2019-06-01T09:30:15.862Z,18.50
2019-06-01T09:32:44.754Z,18.30
2019-06-01T09:35:13.908Z,18.30
2019-06-01T09:37:45.714Z,18.30
2019-06-01T09:40:14.245Z,18.30
2019-06-01T09:42:43.361Z,18.30
2019-06-01T09:45:12.353Z,18.30
2019-06-01T09:47:41.242Z,18.10
2019-06-01T09:50:10.466Z,17.90
2019-06-01T09:52:39.331Z,17.60
2019-06-01T09:55:10.219Z,17.40
2019-06-01T09:57:39.173Z,17.20
2019-06-01T10:00:10.430Z,17.00
2019-06-01T10:02:40.355Z,16.70
2019-06-01T10:05:09.362Z,16.50
2019-06-01T10:07:39.401Z,16.40
2019-06-01T10:12:59.414Z,16.30
2019-06-01T10:15:28.423Z,16.50
2019-06-01T10:17:57.348Z,16.80
2019-06-01T10:20:26.249Z,17.10
2019-06-01T10:22:55.169Z,17.40
2019-06-01T10:25:24.063Z,17.80
2019-06-01T10:28:11.878Z,18.30
2019-06-01T10:30:28.501Z,18.80
2019-06-01T10:32:57.407Z,19.00
2019-06-01T10:35:26.412Z,19.10
2019-06-01T10:37:55.312Z,19.20
2019-06-01T10:40:24.239Z,19.10
2019-06-01T10:42:53.137Z,18.90
2019-06-01T10:45:22.169Z,18.80
2019-06-01T10:47:51.072Z,18.70
2019-06-01T10:50:19.929Z,18.70
2019-06-01T10:52:48.863Z,18.60
2019-06-01T10:55:17.742Z,18.60
2019-06-01T10:57:46.647Z,18.90
2019-06-01T11:00:15.870Z,19.00
2019-06-01T11:02:44.779Z,19.10
2019-06-01T11:05:13.840Z,19.10
2019-06-01T11:07:43.109Z,18.90
2019-06-01T11:10:12.714Z,18.70
2019-06-01T11:12:41.617Z,18.80
2019-06-01T11:15:11.151Z,19.10
2019-06-01T11:17:41.111Z,19.20
2019-06-01T11:20:11.810Z,19.20
2019-06-01T11:22:41.562Z,19.30
2019-06-01T11:25:11.071Z,19.30
2019-06-01T11:27:40.014Z,19.10
2019-06-01T11:30:10.260Z,18.70
2019-06-01T11:32:41.249Z,18.30
2019-06-01T11:35:11.162Z,18.00
2019-06-01T11:37:40.501Z,17.80
2019-06-01T11:40:10.807Z,17.60
2019-06-01T11:42:40.879Z,17.40
2019-06-01T11:45:10.574Z,17.30
2019-06-01T11:47:39.744Z,17.30
2019-06-01T11:50:09.934Z,17.20
2019-06-01T11:52:39.214Z,17.20
2019-06-01T11:55:08.858Z,17.10
2019-06-01T11:57:37.737Z,17.10
2019-06-01T12:00:14.216Z,17.00
2019-06-01T12:02:43.830Z,17.10
2019-06-01T12:05:15.547Z,17.20
2019-06-01T12:07:44.444Z,17.60
2019-06-01T12:10:13.877Z,18.50
2019-06-01T12:12:44.190Z,18.90
2019-06-01T12:15:13.939Z,18.70
2019-06-01T12:17:42.951Z,18.60
2019-06-01T12:20:12.218Z,18.80
2019-06-01T12:22:41.095Z,18.60
2019-06-01T12:25:10.858Z,18.40
2019-06-01T12:27:39.820Z,18.20
2019-06-01T12:30:09.308Z,18.10
2019-06-01T12:32:38.321Z,18.00
2019-06-01T12:35:08.767Z,18.00
2019-06-01T12:37:56.014Z,18.10
2019-06-01T12:40:08.648Z,18.50
2019-06-01T12:42:37.584Z,18.70
2019-06-01T12:45:15.965Z,18.50
2019-06-01T12:47:48.312Z,18.40
2019-06-01T12:50:15.469Z,18.40
2019-06-01T12:52:44.474Z,18.30
2019-06-01T12:55:13.496Z,18.50
2019-06-01T12:57:42.909Z,18.90
2019-06-01T13:00:12.319Z,19.00
2019-06-01T13:02:44.866Z,18.80
2019-06-01T13:05:12.114Z,18.50
2019-06-01T13:07:52.111Z,18.20
2019-06-01T13:10:12.176Z,17.90
2019-06-01T13:12:41.411Z,17.80
2019-06-01T13:15:10.500Z,17.80
2019-06-01T13:17:39.434Z,17.80
2019-06-01T13:20:08.436Z,17.70
2019-06-01T13:22:37.291Z,17.60
2019-06-01T13:25:07.884Z,17.40
2019-06-01T13:27:40.672Z,17.40
2019-06-01T13:30:08.555Z,17.20
2019-06-01T13:32:37.460Z,17.10
2019-06-01T13:35:07.970Z,17.10
2019-06-01T13:37:36.846Z,16.90
2019-06-01T13:40:07.066Z,16.90
2019-06-01T13:42:35.955Z,16.80
2019-06-01T13:45:09.244Z,16.70
2019-06-01T13:47:38.131Z,16.60
2019-06-01T13:50:07.313Z,16.70
2019-06-01T13:52:36.299Z,16.60
2019-06-01T13:55:07.072Z,16.60
2019-06-01T13:57:39.306Z,16.60
2019-06-01T14:00:08.124Z,16.60
2019-06-01T14:02:37.218Z,16.60
2019-06-01T14:05:07.749Z,16.60
2019-06-01T14:07:36.664Z,16.70
2019-06-01T14:10:08.420Z,16.90
2019-06-01T14:12:37.553Z,17.00
2019-06-01T14:15:09.636Z,17.10
2019-06-01T14:17:38.549Z,17.20
2019-06-01T14:20:08.624Z,17.10
2019-06-01T14:22:47.650Z,17.20
2019-06-01T14:25:17.000Z,17.20
2019-06-01T14:27:46.128Z,17.10
2019-06-01T14:30:15.174Z,16.90
2019-06-01T14:32:44.016Z,16.70
2019-06-01T14:35:12.922Z,16.60
2019-06-01T14:37:41.796Z,16.60
2019-06-01T14:40:11.524Z,16.70
2019-06-01T14:42:40.590Z,16.80
2019-06-01T14:45:12.935Z,16.80
2019-06-01T14:47:41.751Z,16.80
2019-06-01T14:50:10.903Z,16.80
2019-06-01T14:52:39.774Z,16.90
2019-06-01T14:55:08.997Z,17.00
2019-06-01T14:57:37.929Z,17.00
2019-06-01T15:00:09.510Z,17.00
2019-06-01T15:02:38.341Z,17.10
2019-06-01T15:05:08.884Z,17.10
2019-06-01T15:07:37.760Z,17.10
2019-06-01T15:10:08.216Z,17.00
2019-06-01T15:12:37.129Z,17.10
2019-06-01T15:15:08.111Z,17.20
2019-06-01T15:17:36.992Z,17.50
2019-06-01T15:20:08.489Z,17.50
2019-06-01T15:22:37.351Z,17.30
2019-06-01T15:25:07.940Z,17.10
2019-06-01T15:27:36.935Z,17.00
2019-06-01T15:30:07.864Z,17.10
2019-06-01T15:32:37.069Z,17.10
2019-06-01T15:35:08.072Z,17.10
2019-06-01T15:37:37.112Z,17.20
2019-06-01T15:40:07.954Z,17.30
2019-06-01T15:42:37.104Z,17.30
2019-06-01T15:45:08.354Z,17.20
2019-06-01T15:47:40.875Z,17.10
2019-06-01T15:50:10.596Z,17.00
2019-06-01T15:52:39.698Z,16.90
2019-06-01T15:55:09.386Z,16.80
2019-06-01T15:57:38.322Z,16.80
2019-06-01T16:00:08.684Z,16.80
2019-06-01T16:02:39.087Z,16.80
2019-06-01T16:05:08.804Z,16.80
2019-06-01T16:07:37.773Z,16.70
2019-06-01T16:10:08.365Z,16.70
2019-06-01T16:12:38.500Z,16.70
2019-06-01T16:15:08.995Z,16.60
2019-06-01T16:17:37.873Z,16.60
2019-06-01T16:20:08.600Z,16.60
2019-06-01T16:22:37.863Z,16.70
2019-06-01T16:25:10.028Z,16.70
2019-06-01T16:27:38.990Z,16.80
2019-06-01T16:30:12.166Z,16.90
2019-06-01T16:32:42.615Z,17.00
2019-06-01T16:35:11.643Z,17.20
2019-06-01T16:37:43.284Z,17.30
2019-06-01T16:40:14.154Z,17.40
2019-06-01T16:42:43.082Z,17.50
2019-06-01T16:45:12.955Z,17.50
2019-06-01T16:47:41.818Z,17.50
2019-06-01T16:50:11.894Z,17.40
2019-06-01T16:52:40.769Z,17.30
2019-06-01T16:55:11.720Z,17.30
2019-06-01T16:57:40.661Z,17.20
2019-06-01T17:00:11.896Z,17.10
2019-06-01T17:02:40.761Z,17.00
2019-06-01T17:05:10.196Z,16.90
2019-06-01T17:07:39.044Z,16.90
2019-06-01T17:10:25.096Z,16.80
2019-06-01T17:12:43.657Z,16.80
2019-06-01T17:15:20.899Z,16.80
2019-06-01T17:17:50.201Z,16.80
2019-06-01T17:20:39.035Z,16.80
2019-06-01T17:23:24.384Z,16.80
2019-06-01T17:25:44.440Z,16.70
2019-06-01T17:28:21.040Z,16.70
2019-06-01T17:30:50.030Z,16.70
2019-06-01T17:33:19.014Z,16.70
2019-06-01T17:35:47.946Z,16.80
2019-06-01T17:38:16.817Z,16.70
2019-06-01T17:40:45.678Z,16.70
2019-06-01T17:43:14.647Z,16.70
2019-06-01T17:45:43.590Z,16.70
2019-06-01T17:48:24.665Z,16.70
2019-06-01T17:50:43.207Z,16.70
2019-06-01T17:53:13.006Z,16.70
2019-06-01T17:55:42.304Z,16.70
2019-06-01T17:58:12.537Z,16.70
2019-06-01T18:00:42.165Z,16.70
2019-06-01T18:03:12.100Z,16.70
2019-06-01T18:05:41.324Z,16.60
2019-06-01T18:08:10.441Z,16.60
2019-06-01T18:10:53.141Z,16.60
2019-06-01T18:13:12.703Z,16.60
2019-06-01T18:15:41.679Z,16.60
2019-06-01T18:18:10.655Z,16.70
2019-06-01T18:20:39.613Z,16.70
2019-06-01T18:23:10.127Z,16.70
2019-06-01T18:25:39.010Z,16.70
2019-06-01T18:28:14.673Z,16.70
2019-06-01T18:30:38.653Z,16.70
2019-06-01T18:33:11.217Z,16.70
2019-06-01T18:35:40.282Z,16.70
2019-06-01T18:38:09.842Z,16.60
2019-06-01T18:40:38.905Z,16.60
2019-06-01T18:43:11.945Z,16.70
2019-06-01T18:45:41.154Z,16.70
2019-06-01T18:48:10.262Z,16.70
2019-06-01T18:50:42.298Z,16.60
2019-06-01T18:53:15.123Z,16.60
2019-06-01T18:55:44.009Z,16.60
2019-06-01T18:58:14.671Z,16.60
2019-06-01T19:00:43.802Z,16.50
2019-06-01T19:03:13.666Z,16.40
2019-06-01T19:05:50.453Z,16.30
2019-06-01T19:08:19.066Z,16.20
2019-06-01T19:10:51.126Z,16.10
2019-06-01T19:13:20.160Z,16.00
2019-06-01T19:15:48.991Z,15.90
2019-06-01T19:18:17.976Z,16.00
2019-06-01T19:20:59.404Z,16.00
2019-06-01T19:23:24.084Z,15.90
2019-06-01T19:25:53.006Z,15.80
2019-06-01T19:28:21.874Z,15.70
2019-06-01T19:30:51.274Z,15.60
2019-06-01T19:33:20.151Z,15.60
2019-06-01T19:35:49.718Z,15.40
2019-06-01T19:38:20.175Z,15.30
2019-06-01T19:40:49.090Z,15.20
2019-06-01T19:43:17.959Z,15.20
2019-06-01T19:45:47.085Z,15.10
2019-06-01T19:48:16.503Z,15.10
2019-06-01T19:50:45.626Z,15.00
2019-06-01T19:53:14.786Z,15.00
2019-06-01T19:55:43.858Z,14.90
2019-06-01T19:58:18.827Z,14.90
2019-06-01T20:00:47.551Z,14.90
2019-06-01T20:03:19.967Z,14.90
2019-06-01T20:05:46.972Z,14.90
2019-06-01T20:08:16.179Z,14.90
2019-06-01T20:10:45.287Z,14.90
2019-06-01T20:13:15.142Z,14.80
2019-06-01T20:15:44.168Z,14.70
2019-06-01T20:18:13.081Z,14.60
2019-06-01T20:20:42.031Z,14.40
2019-06-01T20:23:11.301Z,14.30
2019-06-01T20:25:40.208Z,14.10
2019-06-01T20:30:56.875Z,13.80
2019-06-01T20:33:25.752Z,13.70
2019-06-01T20:35:54.689Z,13.70
2019-06-01T20:38:23.588Z,13.60
2019-06-01T20:40:54.018Z,13.50
2019-06-01T20:43:23.000Z,13.50
2019-06-01T20:45:51.933Z,13.50
2019-06-01T20:48:21.011Z,13.50
2019-06-01T20:50:50.021Z,13.50
2019-06-01T20:53:19.000Z,13.40
2019-06-01T20:55:47.938Z,13.40
2019-06-01T20:58:18.735Z,13.30
2019-06-01T21:00:47.322Z,13.20
2019-06-01T21:03:16.244Z,13.10
2019-06-01T21:05:45.117Z,13.10
2019-06-01T21:08:14.121Z,13.10
2019-06-01T21:10:43.120Z,13.00
2019-06-01T21:13:12.001Z,12.90
2019-06-01T21:15:40.861Z,12.80
2019-06-01T21:18:10.264Z,12.70
2019-06-01T21:20:39.202Z,12.70
2019-06-01T21:23:08.097Z,12.60
2019-06-01T21:25:38.551Z,12.50
2019-06-01T21:28:07.826Z,12.40
2019-06-01T21:30:36.700Z,12.30
2019-06-01T21:33:05.647Z,12.20
2019-06-01T21:35:36.224Z,12.10
2019-06-01T21:38:05.186Z,12.00
2019-06-01T21:40:34.154Z,12.00
2019-06-01T21:43:20.234Z,11.90
2019-06-01T21:45:33.963Z,11.80
2019-06-01T21:48:03.009Z,11.80
2019-06-01T21:50:31.864Z,11.70
2019-06-01T21:53:00.814Z,11.70
2019-06-01T21:55:29.694Z,11.60
2019-06-01T21:57:58.549Z,11.60
2019-06-01T22:00:31.939Z,11.50
2019-06-01T22:03:00.866Z,11.40
2019-06-01T22:05:30.919Z,11.40
2019-06-01T22:07:59.875Z,11.30
2019-06-01T22:10:28.752Z,11.30
2019-06-01T22:12:57.616Z,11.20
2019-06-01T22:15:26.484Z,11.20
2019-06-01T22:17:55.604Z,11.20
2019-06-01T22:20:25.939Z,11.20
2019-06-01T22:22:55.129Z,11.20
2019-06-01T22:25:24.100Z,11.20
2019-06-01T22:27:53.195Z,11.20
2019-06-01T22:30:22.373Z,11.20
2019-06-01T22:32:54.578Z,11.10
2019-06-01T22:35:24.651Z,11.10
2019-06-01T22:37:53.885Z,11.00
2019-06-01T22:40:23.004Z,10.90
2019-06-01T22:42:53.717Z,10.80
2019-06-01T22:45:24.765Z,10.70
2019-06-01T22:48:00.954Z,10.60
2019-06-01T22:50:33.192Z,10.60
2019-06-01T22:53:10.354Z,10.40
2019-06-01T22:55:39.335Z,10.30
2019-06-01T22:58:11.302Z,10.30
2019-06-01T23:00:40.758Z,10.20
2019-06-01T23:03:09.932Z,10.20
2019-06-01T23:05:42.564Z,10.20
2019-06-01T23:08:12.068Z,10.10
2019-06-01T23:10:43.236Z,10.10
2019-06-01T23:13:16.859Z,10.10
2019-06-01T23:15:50.573Z,10.00
2019-06-01T23:18:21.697Z,10.10
2019-06-01T23:20:52.461Z,10.10
2019-06-01T23:23:24.011Z,10.20
2019-06-01T23:28:45.129Z,10.30
2019-06-01T23:31:17.721Z,10.30
2019-06-01T23:33:47.092Z,10.30
2019-06-01T23:36:15.971Z,10.30
2019-06-01T23:38:44.880Z,10.30
2019-06-01T23:41:13.781Z,10.40
2019-06-01T23:43:47.407Z,10.40
2019-06-01T23:46:16.292Z,10.60
2019-06-01T23:48:49.596Z,10.60
2019-06-01T23:51:18.831Z,10.80
2019-06-01T23:53:50.507Z,10.90
2019-06-01T23:56:19.446Z,10.90
2019-06-01T23:58:48.295Z,11.00
